Glendora, California
Current Conditions -  °F | °C
As of 7:47 AM on Tuesday 27 Jan 2015 (Local Time) from KPOC Reporting Station
Overcast Overcast  
Wind Chill: 54°   Ceiling: 6000
Heat Index: 54°   Visibility: 10mi
Dew Point: 54°   Wind: 0mph
Humidity: 100%   Direction: NA
Pressure: 30.2"   Gusts: NA
Location:  34.14°N, 117.86°W
Report Text: KPOC 271547Z 00000KT 10SM OVC060 12/12 A3020
Loading
Personal Weather Stations






























Interactive Weather Map New forecast layout! Learn more

10-Day Weather Forecast

Advertisements
Track Severe Weather on mobile